Accueil
METAR-TAF:

METAR-TAF

Aéroports :

Diest, Belgique

Base aérienne de Schaffen

latitude: 51-00N, longitude: 005-04E, altitude: 30 m

Observation

Le bulletin a été fait il y a 39 minutes, à 23:55 UTC
Vent 8 kt de nord-est
Température -2°C
Humidité 63%
Pression 1021 hPa
Visibilité 10 km ou plus

METAR: EBDT 232355Z AUTO 05008KT 9999 NCD M02/M08 Q1021 BLU

Heure: 01:34 (00:34 UTC)

Prévision

Le bulletin a été fait il y a 12 heures et 53 minutes, à 11:41 UTC
Prévision valable du 23 à 13 UTC au 23 à 22 UTC
Vent 14 kt de nord-est avec des rafales jusqu'à 24 kt
Visibilité 10 km ou plus
Quelques nuages à une hauteur de 22000 ft

TAF: EBDT 231141Z 2313/2322 05014G24KT 9999 FEW220

Observations et prévisions météorologiques de plus de 4000 aéroports (messages METAR et TAF).

Les stations disponibles sont représentées par des disques jaunes et rouges sur la carte.

Passer la souris dessus pour voir le nom de la station.

Cliquer dessus pour voir les observations et prévisions météorologiques.

Pour changer de carte: cliquez sur les boutons verts avec une croix noire pour zoomer, sur le bouton vert avec un tiret pour effectuer un zoom arrière, ou sur les flèches vertes pour les cartes adjacentes.


METAR-TAF: